Terminal Aerodrome Forecast
Issued by NWS

Home | Current Version | Previous Version | Text Only | Print | Product List | Glossary On
Versions: 1 2 3 4 5 6 7 8 9 10 11 12 13 14 15
000
FTUS44 KEPZ 052331
TAFTCS
TAF
KTCS 052331Z 0600/0624 30010KT P6SM VCTS SCT060CB BKN090 OVC250
      TEMPO 0600/0602 VRB20G35KT 2SM TSRA BKN030CB OVC060
     FM060600 31007KT P6SM VCSH SCT060 BKN100
     FM061000 30005KT P6SM SCT100
     FM062000 35010KT P6SM VCTS SCT060CB BKN120=

USA.gov is the U.S. government's official web portal to all federal, state and local government web resources and services.